Time;durP1;ratioP1;P1;durP2;ratioP2;P2;SDS_P1;SDS_P2;PMS_P1;PMS_P2;Temp;Humidity;BMP_temperature;BMP_pressure;BME280_temperature;BME280_humidity;BME280_pressure;Samples;Min_cycle;Max_cycle;Signal;HPM_P1;HPM_P2
2021/05/04 05:04:24;;;;;;;7.50;5.63;;;;;;;12.83;76.03;97814.00;5668137;23;20040;-88
2021/05/04 05:06:49;;;;;;;12.55;5.05;;;;;;;13.05;70.34;97806.22;4869875;29;20049;-90
2021/05/04 05:09:15;;;;;;;11.23;5.90;;;;;;;13.38;68.27;97846.09;4881727;29;20032;-87
2021/05/04 05:11:41;;;;;;;279.48;190.02;;;;;;;13.79;68.28;97862.03;4869492;29;20036;-88
2021/05/04 05:14:08;;;;;;;10.95;6.45;;;;;;;13.81;68.27;97854.75;4871545;29;20123;-91
2021/05/04 05:16:34;;;;;;;9.25;5.25;;;;;;;14.19;66.18;97855.56;4881668;29;20040;-90
2021/05/04 05:18:59;;;;;;;20.60;13.90;;;;;;;14.57;64.10;97861.78;4880405;29;20047;-89
2021/05/04 05:21:25;;;;;;;8.15;5.30;;;;;;;15.06;61.51;97864.41;4866117;29;20094;-90
2021/05/04 05:23:52;;;;;;;8.20;4.85;;;;;;;15.53;61.09;97868.94;4861442;29;20025;-90
2021/05/04 05:26:18;;;;;;;4.95;3.90;;;;;;;15.73;58.06;97852.06;4860865;29;20028;-91
2021/05/04 05:28:54;;;;;;;11.02;4.72;;;;;;;16.02;58.44;97874.06;4880881;29;20032;-89
2021/05/04 05:31:21;;;;;;;9.68;4.63;;;;;;;16.30;57.79;97850.28;4846943;29;20029;-89
2021/05/04 05:33:53;;;;;;;7.85;4.93;;;;;;;16.90;55.39;97866.06;4832738;29;20029;-87
2021/05/04 05:36:24;;;;;;;9.48;6.22;;;;;;;16.98;55.84;97861.75;4857857;29;20032;-88
2021/05/04 05:38:53;;;;;;;16.52;5.30;;;;;;;18.03;51.70;97845.53;4857374;29;20096;-89
2021/05/04 05:41:21;;;;;;;12.10;7.25;;;;;;;19.63;48.32;97859.00;4856606;29;20187;-90
2021/05/04 05:43:46;;;;;;;14.55;6.97;;;;;;;21.42;43.08;97864.94;4864751;29;20132;-88
2021/05/04 05:49:16;;;;;;;12.55;6.30;;;;;;;24.19;37.76;97859.72;4880500;29;20189;-87
2021/05/04 05:51:41;;;;;;;17.95;5.82;;;;;;;25.63;33.94;97867.59;4860108;29;20640;-86
2021/05/04 05:54:07;;;;;;;43.53;29.70;;;;;;;26.05;34.07;97860.78;4876784;29;20032;-86
2021/05/04 05:56:32;;;;;;;23.05;6.65;;;;;;;26.46;32.63;97866.78;4858933;29;20036;-87
2021/05/04 05:58:58;;;;;;;11.48;5.10;;;;;;;27.71;30.48;97840.00;4881463;29;20028;-78
2021/05/04 06:01:24;;;;;;;14.57;5.43;;;;;;;28.32;28.26;97824.75;4884550;29;20088;-89
2021/05/04 06:03:50;;;;;;;13.60;8.20;;;;;;;26.40;29.44;97830.81;4878990;29;20028;-89
2021/05/04 06:06:17;;;;;;;5.90;4.20;;;;;;;26.64;29.78;97823.38;4853621;29;20063;-89
2021/05/04 06:08:43;;;;;;;19.38;6.50;;;;;;;28.41;28.62;97841.94;4855793;29;20060;-91
2021/05/04 06:11:22;;;;;;;5.63;3.85;;;;;;;29.34;26.24;97842.38;4861930;29;20033;-91
2021/05/04 06:13:48;;;;;;;6.68;4.25;;;;;;;27.66;28.17;97834.22;4875873;29;20025;-91
2021/05/04 06:16:14;;;;;;;6.13;4.53;;;;;;;27.29;26.36;97780.28;4873244;29;20029;-91
2021/05/04 06:18:39;;;;;;;11.10;4.00;;;;;;;26.90;27.58;97816.38;4856855;29;20028;-90
2021/05/04 06:21:05;;;;;;;13.35;4.63;;;;;;;27.66;27.12;97822.38;4868233;29;20039;-78
2021/05/04 06:23:31;;;;;;;8.02;4.03;;;;;;;27.16;25.70;97799.41;4856959;29;20048;-79
2021/05/04 06:25:57;;;;;;;8.15;3.65;;;;;;;28.37;24.59;97804.84;4853796;29;20032;-78
2021/05/04 06:28:22;;;;;;;10.48;3.85;;;;;;;29.17;24.23;97810.66;4874834;29;20066;-79
2021/05/04 06:30:48;;;;;;;10.07;3.80;;;;;;;30.25;23.52;97813.28;4856634;29;20104;-78
2021/05/04 06:33:15;;;;;;;13.65;3.90;;;;;;;30.73;21.16;97789.03;4852719;29;20037;-80
2021/05/04 06:35:42;;;;;;;7.05;3.80;;;;;;;30.04;21.02;97795.00;4880748;29;20047;-79
2021/05/04 06:38:13;;;;;;;5.63;3.15;;;;;;;28.67;22.73;97795.34;4852202;29;20041;-78
2021/05/04 06:40:42;;;;;;;9.48;3.50;;;;;;;29.97;21.47;97790.53;4863967;29;20045;-78
2021/05/04 06:43:09;;;;;;;8.25;3.90;;;;;;;31.00;20.59;97784.31;4835585;29;20036;-79
2021/05/04 06:45:37;;;;;;;9.90;4.40;;;;;;;31.22;20.67;97777.41;4849424;29;20077;-78
2021/05/04 06:48:03;;;;;;;6.55;3.42;;;;;;;30.00;20.99;97776.31;4848960;29;20043;-80
2021/05/04 06:50:29;;;;;;;5.95;3.40;;;;;;;29.47;21.66;97765.19;4863337;29;20025;-80
2021/05/04 06:52:54;;;;;;;5.25;3.40;;;;;;;30.24;20.14;97775.66;4862741;29;20066;-78
2021/05/04 06:55:20;;;;;;;4.72;4.07;;;;;;;29.25;21.53;97766.41;4861549;29;20478;-79
2021/05/04 06:57:46;;;;;;;4.72;3.20;;;;;;;29.29;21.76;97762.16;4869027;29;20480;-78
2021/05/04 07:00:12;;;;;;;4.20;3.40;;;;;;;30.38;20.39;97763.56;4861335;29;20024;-79
2021/05/04 07:02:38;;;;;;;6.70;4.30;;;;;;;30.26;20.95;97762.53;4876069;29;20040;-79
2021/05/04 07:05:05;;;;;;;6.15;3.33;;;;;;;29.65;20.76;97759.09;4861686;29;20060;-80
2021/05/04 07:07:30;;;;;;;7.70;3.58;;;;;;;28.36;22.29;97751.69;4859453;29;20519;-78
2021/05/04 07:09:56;;;;;;;12.35;3.35;;;;;;;28.17;22.91;97744.19;4872098;29;20061;-79
2021/05/04 07:12:22;;;;;;;9.38;6.18;;;;;;;28.53;22.17;97738.47;4851561;29;20501;-78
2021/05/04 07:14:47;;;;;;;8.85;3.55;;;;;;;28.25;23.29;97744.00;4876315;29;20025;-79
2021/05/04 07:17:13;;;;;;;5.72;3.33;;;;;;;28.87;22.47;97743.13;4860649;29;20592;-79
2021/05/04 07:19:40;;;;;;;5.00;3.63;;;;;;;29.52;21.77;97740.59;4871666;29;20044;-79
2021/05/04 07:22:09;;;;;;;6.07;3.42;;;;;;;29.40;21.50;97733.16;4861746;29;20044;-79
2021/05/04 07:24:35;;;;;;;17.70;3.92;;;;;;;29.10;21.89;97727.13;4859304;29;20040;-79
2021/05/04 07:27:00;;;;;;;11.63;5.20;;;;;;;29.10;21.68;97727.13;4854202;29;20457;-79
2021/05/04 07:29:26;;;;;;;11.82;4.10;;;;;;;28.83;22.14;97730.81;4852461;29;20032;-79
2021/05/04 07:31:52;;;;;;;8.98;3.95;;;;;;;28.82;23.70;97726.38;4845323;29;20112;-79
2021/05/04 07:34:17;;;;;;;14.35;6.60;;;;;;;29.33;21.10;97722.13;4852966;29;20032;-79
2021/05/04 07:36:43;;;;;;;5.95;3.42;;;;;;;29.27;22.46;97722.09;4861019;29;20041;-80
2021/05/04 07:39:08;;;;;;;11.05;5.75;;;;;;;29.58;21.36;97712.19;4859982;29;20032;-79
2021/05/04 07:41:35;;;;;;;11.13;3.80;;;;;;;31.00;20.11;97710.53;4860548;29;20582;-79
2021/05/04 07:44:01;;;;;;;6.10;4.18;;;;;;;29.67;21.37;97711.97;4853726;29;20413;-80
2021/05/04 07:46:28;;;;;;;8.18;4.63;;;;;;;30.69;20.47;97712.31;4879605;29;20092;-79
2021/05/04 07:48:55;;;;;;;12.73;4.13;;;;;;;30.73;20.94;97717.22;4879664;29;20029;-78
2021/05/04 07:51:20;;;;;;;5.05;3.40;;;;;;;31.61;20.39;97715.50;4876443;29;20036;-78
2021/05/04 07:53:46;;;;;;;12.90;8.75;;;;;;;31.74;19.42;97693.28;4894685;29;20088;-78
2021/05/04 07:56:12;;;;;;;5.53;3.00;;;;;;;31.00;19.63;97701.38;4853735;29;20033;-78
2021/05/04 07:58:38;;;;;;;10.80;3.35;;;;;;;30.66;21.70;97693.41;4845309;29;20123;-80
2021/05/04 08:01:03;;;;;;;6.10;3.90;;;;;;;29.65;20.72;97697.56;4874747;29;20044;-79
2021/05/04 08:03:30;;;;;;;8.63;4.35;;;;;;;29.25;22.22;97703.03;4863706;29;20033;-79
2021/05/04 08:05:55;;;;;;;10.23;5.18;;;;;;;29.58;22.06;97709.44;4849156;29;20528;-80
2021/05/04 08:08:21;;;;;;;6.22;3.03;;;;;;;29.96;20.53;97703.31;4875725;29;20033;-79
2021/05/04 08:10:47;;;;;;;7.60;3.50;;;;;;;29.88;21.09;97700.75;4850902;29;20044;-80
2021/05/04 08:13:13;;;;;;;5.75;3.15;;;;;;;28.64;21.95;97684.75;4868073;29;20437;-79
2021/05/04 08:15:39;;;;;;;13.50;5.10;;;;;;;29.21;22.84;97709.13;4888450;29;20098;-79
2021/05/04 08:18:11;;;;;;;4.50;3.13;;;;;;;29.99;21.51;97705.66;4848473;29;20041;-79
2021/05/04 08:20:44;;;;;;;11.05;4.72;;;;;;;29.69;20.92;97690.53;4864332;29;20075;-79
2021/05/04 08:23:10;;;;;;;6.72;3.10;;;;;;;29.75;22.12;97695.22;4855594;29;20033;-78
2021/05/04 08:25:36;;;;;;;6.22;2.88;;;;;;;29.24;21.56;97687.53;4871465;29;20428;-79
2021/05/04 08:28:01;;;;;;;5.35;3.33;;;;;;;28.67;22.28;97676.09;4852210;29;20050;-79
2021/05/04 08:30:27;;;;;;;6.00;3.50;;;;;;;30.28;22.05;97679.47;4853112;29;20093;-79
2021/05/04 08:32:53;;;;;;;7.38;3.28;;;;;;;30.47;20.90;97671.19;4860522;29;20044;-79
2021/05/04 08:35:19;;;;;;;13.52;8.77;;;;;;;30.64;20.23;97668.75;4877599;29;20039;-79
2021/05/04 08:37:44;;;;;;;9.40;3.85;;;;;;;31.08;20.45;97659.66;4875088;29;20504;-80
2021/05/04 08:40:11;;;;;;;3.83;3.10;;;;;;;31.51;21.03;97665.34;4866501;29;20135;-78
2021/05/04 08:42:45;;;;;;;7.15;2.78;;;;;;;30.96;20.74;97664.19;4863844;29;20397;-78
2021/05/04 08:45:13;;;;;;;3.38;2.90;;;;;;;31.45;19.47;97661.53;4871564;29;20413;-78
2021/05/04 08:47:38;;;;;;;5.80;2.60;;;;;;;30.58;20.85;97653.91;4863150;29;20069;-78
2021/05/04 08:50:05;;;;;;;7.97;2.60;;;;;;;30.98;20.39;97657.38;4848312;29;20032;-79
2021/05/04 08:52:30;;;;;;;5.35;2.78;;;;;;;31.15;20.13;97654.94;4870250;29;20037;-76
2021/05/04 08:55:02;;;;;;;6.22;2.90;;;;;;;31.46;20.67;97654.94;4846848;29;20441;-76
2021/05/04 08:57:28;;;;;;;7.15;2.80;;;;;;;32.65;18.74;97658.31;4847625;29;20029;-79
2021/05/04 08:59:53;;;;;;;4.10;2.67;;;;;;;32.11;19.34;97644.44;4892450;29;20417;-83
2021/05/04 09:02:23;;;;;;;10.80;3.60;;;;;;;32.29;21.64;97652.75;4864900;29;20119;-78
2021/05/04 09:04:55;;;;;;;3.50;2.20;;;;;;;32.19;20.36;97644.97;4854344;29;20056;-76
2021/05/04 09:07:28;;;;;;;11.15;6.18;;;;;;;33.11;19.56;97662.44;4849191;29;20505;-77
2021/05/04 09:13:15;;;;;;;9.07;3.00;;;;;;;34.08;19.34;97636.97;4880887;29;20131;-80
2021/05/04 09:21:35;;;;;;;7.53;2.88;;;;;;;32.98;20.17;97643.19;4874579;29;20033;-77
2021/05/04 09:24:30;;;;;;;7.82;2.30;;;;;;;32.85;19.53;97629.50;4855355;29;20029;-77
2021/05/04 09:27:07;;;;;;;4.20;2.42;;;;;;;31.61;20.70;97619.53;4842041;29;20469;-77
2021/05/04 09:29:37;;;;;;;4.93;2.50;;;;;;;32.15;21.84;97626.25;4895361;29;20040;-76
2021/05/04 09:32:19;;;;;;;6.85;2.38;;;;;;;31.64;21.12;97615.47;4876451;29;20047;-76
2021/05/04 09:34:52;;;;;;;;;;;;;;;32.11;20.58;97613.97;4898141;29;20036;-78
2021/05/04 09:37:29;;;;;;;3.25;2.10;;;;;;;32.50;20.95;97605.19;4864918;29;19912;-82
2021/05/04 09:39:57;;;;;;;25.63;2.55;;;;;;;33.66;20.07;97597.34;4872515;29;20421;-75
2021/05/04 09:42:31;;;;;;;5.85;2.20;;;;;;;32.65;20.53;97580.72;4857885;29;20190;-77
2021/05/04 09:44:56;;;;;;;4.60;2.45;;;;;;;33.49;18.49;97551.94;4848044;29;20032;-85
2021/05/04 09:47:24;;;;;;;7.00;2.00;;;;;;;34.89;17.04;97563.72;4863271;29;20443;-82
2021/05/04 09:49:50;;;;;;;2.97;2.33;;;;;;;35.05;17.60;97565.69;4857361;29;20028;-85
2021/05/04 09:52:48;;;;;;;7.32;2.75;;;;;;;35.09;18.57;97582.78;4857720;29;20036;-84
2021/05/04 09:55:16;;;;;;;6.47;2.10;;;;;;;34.90;17.83;97567.34;4854210;29;20136;-84
2021/05/04 09:57:43;;;;;;;3.95;3.55;;;;;;;35.27;17.63;97579.75;4879072;29;20040;-75
2021/05/04 10:00:16;;;;;;;2.17;1.92;;;;;;;34.22;18.54;97573.69;4862787;29;20021;-74
2021/05/04 10:02:43;;;;;;;7.15;2.28;;;;;;;34.78;17.81;97568.25;4864695;29;20041;-74
2021/05/04 10:05:11;;;;;;;3.70;1.98;;;;;;;35.36;16.69;97561.56;4881331;29;20589;-73
2021/05/04 10:07:37;;;;;;;3.78;2.20;;;;;;;35.81;16.97;97550.34;4880684;29;20035;-74
2021/05/04 10:10:04;;;;;;;2.90;2.00;;;;;;;34.55;18.04;97550.75;4897606;29;20028;-81
2021/05/04 10:12:29;;;;;;;6.32;2.00;;;;;;;35.34;17.88;97558.19;4866283;29;20029;-77
2021/05/04 10:14:58;;;;;;;8.15;3.58;;;;;;;33.99;18.28;97555.13;4873095;29;20048;-76
2021/05/04 10:17:50;;;;;;;3.38;2.60;;;;;;;34.00;16.92;97539.28;4877766;29;20033;-77
2021/05/04 10:20:18;;;;;;;27.50;7.10;;;;;;;34.59;17.07;97540.84;4889923;29;20056;-77
2021/05/04 10:22:47;;;;;;;6.38;2.40;;;;;;;35.53;16.79;97542.94;4878141;29;20068;-77
2021/05/04 10:25:20;;;;;;;3.33;2.63;;;;;;;35.87;16.73;97536.22;4881476;29;20025;-77
2021/05/04 10:27:50;;;;;;;3.35;3.05;;;;;;;35.62;15.99;97527.53;4865627;29;20489;-77
2021/05/04 10:30:18;;;;;;;3.38;1.92;;;;;;;35.90;16.06;97524.56;4880757;29;20032;-77
2021/05/04 10:32:56;;;;;;;5.15;2.35;;;;;;;36.30;16.25;97526.28;4858447;29;20044;-77
2021/05/04 10:35:31;;;;;;;3.45;2.60;;;;;;;37.00;15.02;97534.69;4858658;29;20512;-78
2021/05/04 10:38:01;;;;;;;3.40;2.03;;;;;;;36.68;15.63;97520.63;4880185;29;20111;-77
2021/05/04 10:40:31;;;;;;;2.58;2.10;;;;;;;36.52;15.11;97523.50;4856050;29;20031;-78
2021/05/04 10:43:20;;;;;;;3.22;1.90;;;;;;;34.86;16.41;97505.81;4878106;29;20029;-77
2021/05/04 10:45:45;;;;;;;4.43;2.10;;;;;;;35.17;17.47;97521.13;4862526;29;20033;-77
2021/05/04 10:48:11;;;;;;;3.10;2.15;;;;;;;35.34;17.00;97513.66;4861865;29;20028;-77
2021/05/04 10:50:55;;;;;;;4.45;1.90;;;;;;;34.77;17.34;97508.16;4869477;29;20040;-79
2021/05/04 10:53:27;;;;;;;4.65;2.50;;;;;;;36.29;15.42;97499.50;4882593;29;20075;-77
2021/05/04 10:55:53;;;;;;;4.25;2.20;;;;;;;36.58;16.80;97506.56;4864991;29;20466;-77
2021/05/04 10:58:31;;;;;;;12.82;2.75;;;;;;;36.41;16.68;97511.38;4875641;29;20092;-79
2021/05/04 11:01:18;;;;;;;5.78;2.55;;;;;;;36.88;16.15;97494.91;4854487;29;20417;-77
2021/05/04 11:03:48;;;;;;;3.45;2.10;;;;;;;37.48;15.48;97489.09;4880490;29;20043;-78
2021/05/04 11:06:26;;;;;;;3.95;2.50;;;;;;;38.17;15.04;97489.84;4854444;29;20048;-76
2021/05/04 11:08:51;;;;;;;4.82;1.92;;;;;;;37.44;14.74;97473.94;4879669;29;20497;-78
2021/05/04 11:11:24;;;;;;;13.50;2.70;;;;;;;34.91;16.92;97468.94;4865778;29;20039;-78
2021/05/04 11:13:50;;;;;;;4.65;2.38;;;;;;;34.56;17.89;97467.16;4890686;29;20033;-77
2021/05/04 11:16:35;;;;;;;4.15;2.17;;;;;;;34.76;19.32;97469.50;4871186;29;20033;-79
2021/05/04 11:19:10;;;;;;;10.25;2.20;;;;;;;34.24;17.84;97463.19;4855133;29;20032;-78
2021/05/04 11:22:02;;;;;;;4.93;2.30;;;;;;;34.26;17.83;97461.84;4894771;29;20882;-77
2021/05/04 11:24:36;;;;;;;4.68;2.42;;;;;;;33.37;18.05;97451.22;4845063;29;20045;-77
2021/05/04 11:27:21;;;;;;;9.02;2.42;;;;;;;32.06;19.95;97448.53;4860323;29;20037;-78
2021/05/04 11:29:48;;;;;;;5.40;2.40;;;;;;;32.63;19.97;97458.19;4859363;29;20116;-78
2021/05/04 11:32:36;;;;;;;2.63;2.03;;;;;;;34.22;18.33;97440.34;4882584;29;20558;-77
2021/05/04 11:35:07;;;;;;;9.77;2.65;;;;;;;34.10;19.17;97426.50;4863529;29;20073;-85
2021/05/04 11:37:39;;;;;;;4.15;2.80;;;;;;;35.15;17.19;97425.97;4869077;29;20073;-84
2021/05/04 11:40:10;;;;;;;7.25;2.20;;;;;;;36.19;18.05;97446.44;4847671;29;20051;-84
2021/05/04 11:42:41;;;;;;;3.42;2.45;;;;;;;37.34;17.24;97443.16;4874607;29;20620;-77
2021/05/04 11:45:24;;;;;;;4.45;2.20;;;;;;;37.41;16.97;97436.22;4853920;29;20412;-80
2021/05/04 11:47:53;;;;;;;11.35;1.92;;;;;;;36.61;15.86;97419.59;4866020;29;20146;-75
2021/05/04 11:50:28;;;;;;;5.88;2.17;;;;;;;35.07;17.52;97418.84;4847470;29;20041;-76
2021/05/04 11:53:02;;;;;;;7.28;2.20;;;;;;;35.28;16.76;97420.06;4846393;29;20037;-77
2021/05/04 11:55:30;;;;;;;4.75;2.63;;;;;;;35.53;18.92;97423.22;4849880;29;20039;-77
2021/05/04 11:57:57;;;;;;;5.82;2.55;;;;;;;36.06;16.42;97422.59;4879766;29;20040;-75
2021/05/04 12:00:24;;;;;;;4.60;2.47;;;;;;;36.82;17.11;97407.56;4879592;29;20424;-76
2021/05/04 12:02:50;;;;;;;9.07;2.25;;;;;;;37.45;16.04;97405.84;4879594;29;20393;-77
2021/05/04 12:05:28;;;;;;;4.80;1.90;;;;;;;36.28;17.44;97423.41;4879340;29;20135;-75
2021/05/04 12:07:55;;;;;;;2.88;2.20;;;;;;;36.24;18.26;97413.06;4864312;29;20025;-76
2021/05/04 12:10:34;;;;;;;3.05;1.95;;;;;;;36.61;17.32;97402.88;4865725;29;20031;-76
2021/05/04 12:13:10;;;;;;;3.92;1.85;;;;;;;36.04;17.17;97390.50;4900475;29;20488;-77
2021/05/04 12:15:38;;;;;;;17.45;2.15;;;;;;;35.63;17.49;97364.06;4831116;29;20045;-77
2021/05/04 12:18:11;;;;;;;4.00;1.67;;;;;;;36.26;18.28;97394.13;4846359;29;20033;-76
2021/05/04 12:20:43;;;;;;;4.38;2.53;;;;;;;36.32;18.13;97379.16;4854908;29;20051;-77
2021/05/04 12:23:09;;;;;;;2.63;1.70;;;;;;;34.52;18.29;97360.34;4867132;29;20029;-77
2021/05/04 12:25:52;;;;;;;2.42;1.80;;;;;;;33.61;19.75;97372.44;4849566;29;20059;-75
2021/05/04 12:28:21;;;;;;;7.90;1.88;;;;;;;32.08;20.72;97362.50;4874142;29;20029;-75
2021/05/04 12:30:48;;;;;;;3.88;1.85;;;;;;;32.68;20.19;97372.41;4867446;29;20386;-77
2021/05/04 12:33:17;;;;;;;3.20;2.00;;;;;;;32.68;19.49;97355.78;4881885;29;20033;-77
2021/05/04 12:35:49;;;;;;;2.13;1.80;;;;;;;32.10;21.00;97363.09;4849076;29;20100;-76
2021/05/04 12:38:33;;;;;;;16.13;2.42;;;;;;;31.95;22.85;97370.94;4849330;29;20052;-76
2021/05/04 12:41:14;;;;;;;67.47;5.40;;;;;;;31.08;21.54;97353.69;4880244;29;20032;-76
2021/05/04 12:43:43;;;;;;;12.80;2.45;;;;;;;31.76;22.38;97360.97;4831529;29;20553;-76
2021/05/04 12:46:18;;;;;;;9.10;2.00;;;;;;;31.52;22.56;97348.97;4845276;29;20033;-77
2021/05/04 12:48:45;;;;;;;8.07;2.72;;;;;;;32.08;22.45;97352.28;4876478;29;20085;-76
2021/05/04 12:51:13;;;;;;;3.90;2.30;;;;;;;32.14;21.40;97339.41;4858978;29;20039;-76
2021/05/04 12:53:41;;;;;;;6.38;2.10;;;;;;;31.40;22.14;97337.81;4859617;29;20457;-76
2021/05/04 12:56:09;;;;;;;9.48;2.22;;;;;;;31.52;22.26;97346.19;4859747;29;20044;-76
2021/05/04 12:58:59;;;;;;;10.88;2.35;;;;;;;31.61;21.96;97329.03;4871448;29;20025;-74
2021/05/04 13:01:34;;;;;;;6.82;2.00;;;;;;;32.76;20.81;97320.50;4857555;29;20044;-75
2021/05/04 13:04:03;;;;;;;12.18;1.90;;;;;;;32.02;21.39;97306.13;4876295;29;20037;-74
2021/05/04 13:06:38;;;;;;;5.50;2.50;;;;;;;32.09;20.91;97323.47;4850787;29;20049;-76
2021/05/04 13:09:22;;;;;;;6.35;2.60;;;;;;;32.12;22.45;97325.78;4877553;29;20490;-75
2021/05/04 13:11:56;;;;;;;28.30;4.03;;;;;;;32.38;21.60;97326.44;4857681;29;20420;-76
2021/05/04 13:30:43;;;;;;;4.85;2.00;;;;;;;32.17;22.00;97319.53;4861732;29;20413;-76
2021/05/04 13:33:12;;;;;;;12.05;2.45;;;;;;;31.67;21.50;97321.72;4866458;29;20476;-75
2021/05/04 13:35:49;;;;;;;22.05;2.83;;;;;;;31.38;21.93;97317.81;4848752;29;20037;-76
2021/05/04 13:49:10;;;;;;;11.48;2.60;;;;;;;27.95;26.02;97341.78;4865612;29;20092;-76
2021/05/04 13:51:37;;;;;;;3.97;2.25;;;;;;;26.82;27.64;97340.66;4847374;29;20040;-76
2021/05/04 13:54:04;;;;;;;13.77;3.03;;;;;;;26.78;27.19;97340.19;4863053;29;20036;-75
2021/05/04 13:56:30;;;;;;;12.95;2.70;;;;;;;26.63;28.47;97335.84;4863918;29;20092;-76
2021/05/04 13:58:55;;;;;;;6.95;2.40;;;;;;;26.24;28.46;97341.91;4881352;29;20510;-77
2021/05/04 14:01:25;;;;;;;9.43;1.90;;;;;;;26.23;28.56;97338.31;4865644;29;20510;-77
2021/05/04 14:06:41;;;;;;;10.55;3.00;;;;;;;26.04;29.89;97340.81;4882567;29;20088;-78
2021/05/04 14:27:43;;;;;;;4.93;2.15;;;;;;;24.47;30.78;97301.34;4880287;29;20024;-76
2021/05/04 14:30:11;;;;;;;5.95;2.10;;;;;;;24.65;31.57;97312.75;4880760;29;20440;-77
2021/05/04 14:32:38;;;;;;;5.90;1.90;;;;;;;24.72;32.02;97310.97;4880242;29;20032;-75
2021/05/04 14:35:07;;;;;;;20.05;2.28;;;;;;;24.50;31.31;97311.91;4865038;29;20481;-78
2021/05/04 14:40:14;;;;;;;13.40;6.97;;;;;;;24.54;31.51;97307.78;4876412;29;20025;-76
2021/05/04 14:45:21;;;;;;;9.60;2.33;;;;;;;24.40;31.38;97305.84;4867202;29;20080;-77
2021/05/04 14:48:12;;;;;;;3.67;1.98;;;;;;;24.37;31.85;97306.22;4882450;29;20032;-76
2021/05/04 14:56:26;;;;;;;3.58;2.63;;;;;;;23.93;32.40;97287.00;4884573;29;20125;-76
2021/05/04 15:01:43;;;;;;;9.27;3.58;;;;;;;23.67;33.19;97281.91;4878207;29;20132;-77
2021/05/04 15:04:09;;;;;;;9.35;2.83;;;;;;;23.65;33.29;97290.31;4847124;29;20033;-77
2021/05/04 15:06:35;;;;;;;8.68;2.05;;;;;;;23.57;32.51;97273.97;4854112;29;20116;-76
2021/05/04 15:09:05;;;;;;;3.22;2.10;;;;;;;23.26;32.94;97277.78;4864553;29;20028;-74
2021/05/04 15:11:31;;;;;;;8.38;2.30;;;;;;;23.18;33.59;97270.47;4880119;29;20124;-75
2021/05/04 15:13:58;;;;;;;9.93;2.75;;;;;;;23.08;32.90;97267.97;4864624;29;20024;-76
2021/05/04 15:24:02;;;;;;;5.90;1.83;;;;;;;22.77;34.38;97271.72;4896954;29;20028;-75
2021/05/04 15:26:28;;;;;;;6.53;2.33;;;;;;;22.79;34.98;97262.34;4880198;29;20031;-75
2021/05/04 15:28:53;;;;;;;3.20;2.10;;;;;;;22.78;36.27;97263.34;4879660;29;20497;-76
2021/05/04 15:31:20;;;;;;;4.97;2.08;;;;;;;22.73;34.55;97254.03;4864154;29;20063;-74
2021/05/04 15:33:46;;;;;;;16.15;2.03;;;;;;;22.70;34.93;97238.88;4870610;29;20037;-75
2021/05/04 15:36:14;;;;;;;2.80;2.03;;;;;;;22.50;34.82;97234.81;4850298;29;20111;-75
2021/05/04 15:38:40;;;;;;;5.15;2.42;;;;;;;22.48;35.13;97235.00;4855884;29;20095;-76
2021/05/04 15:41:06;;;;;;;11.05;2.60;;;;;;;22.49;35.92;97239.41;4860730;29;20037;-77
2021/05/04 15:43:32;;;;;;;5.40;3.60;;;;;;;22.51;35.81;97228.34;4860974;29;20037;-76
2021/05/04 15:46:27;;;;;;;5.75;3.15;;;;;;;22.36;35.35;97224.66;4857464;29;20044;-75
2021/05/04 16:02:16;;;;;;;7.25;3.50;;;;;;;22.24;36.68;97226.91;4846805;29;20044;-76
2021/05/04 16:07:35;;;;;;;16.48;3.05;;;;;;;21.99;36.40;97211.66;4874553;29;20060;-76
2021/05/04 16:10:00;;;;;;;11.20;2.58;;;;;;;21.82;37.17;97224.44;4865279;29;20061;-77
2021/05/04 16:12:26;;;;;;;10.50;4.00;;;;;;;21.76;37.30;97225.13;4863952;29;20079;-78
2021/05/04 16:14:51;;;;;;;20.00;3.22;;;;;;;21.64;37.55;97212.88;4854905;29;20025;-76
2021/05/04 16:17:17;;;;;;;4.20;2.72;;;;;;;21.63;37.49;97205.72;4857917;29;20060;-76
2021/05/04 16:19:45;;;;;;;11.55;3.13;;;;;;;21.54;37.91;97206.75;4861320;29;20505;-79
2021/05/04 16:22:25;;;;;;;7.75;3.08;;;;;;;21.39;38.26;97200.31;4846789;29;20032;-75
2021/05/04 16:24:58;;;;;;;3.85;2.55;;;;;;;21.20;38.54;97196.03;4857149;29;20132;-74
2021/05/04 16:27:34;;;;;;;4.18;2.53;;;;;;;21.18;38.97;97206.25;4855495;29;20036;-75
2021/05/04 16:30:07;;;;;;;40.08;4.32;;;;;;;21.12;39.14;97206.09;4869622;29;20041;-75
2021/05/04 16:32:33;;;;;;;27.75;4.43;;;;;;;21.01;38.79;97199.91;4870428;29;20036;-76
2021/05/04 16:35:01;;;;;;;4.50;2.80;;;;;;;20.90;39.32;97208.41;4877723;29;20408;-86
2021/05/04 16:37:29;;;;;;;3.90;2.58;;;;;;;20.81;39.23;97208.56;4849277;29;20124;-85
2021/05/04 16:43:24;;;;;;;12.75;2.97;;;;;;;20.16;39.81;97134.09;4890553;29;20044;-85
2021/05/04 16:46:27;;;;;;;10.75;3.85;;;;;;;20.54;40.95;97215.13;4858237;29;20052;-85
2021/05/04 16:48:53;;;;;;;9.70;2.95;;;;;;;20.04;40.88;97144.44;4880985;29;20089;-81
2021/05/04 16:51:24;;;;;;;8.50;4.40;;;;;;;20.42;40.23;97205.56;4863889;29;20048;-85
2021/05/04 16:54:05;;;;;;;8.88;3.13;;;;;;;20.24;39.95;97183.06;4876629;29;20036;-85
2021/05/04 16:56:43;;;;;;;5.38;3.00;;;;;;;20.24;40.40;97172.19;4875871;29;20040;-85
2021/05/04 16:59:19;;;;;;;;;;;;;;;;;;;;;
2021/05/04 17:01:50;;;;;;;8.18;2.70;;;;;;;20.00;42.57;97143.03;4855993;29;20031;-85
2021/05/04 17:04:42;;;;;;;12.18;3.00;;;;;;;19.86;43.19;97135.53;4846969;29;20041;-85
2021/05/04 17:07:18;;;;;;;7.30;2.92;;;;;;;19.95;42.55;97170.69;4853907;29;20053;-75
2021/05/04 17:13:01;;;;;;;5.18;3.60;;;;;;;19.42;43.92;97170.88;4870000;29;20044;-84
2021/05/04 17:15:31;;;;;;;9.98;3.33;;;;;;;19.27;44.51;97163.44;4854168;29;20133;-86
2021/05/04 17:18:15;;;;;;;10.32;4.05;;;;;;;18.93;45.10;97115.41;4855670;29;20047;-84
2021/05/04 17:20:44;;;;;;;10.90;3.70;;;;;;;19.05;45.05;97159.38;4857866;29;20036;-85
2021/05/04 17:23:33;;;;;;;13.35;3.78;;;;;;;18.61;46.57;97106.97;4869796;29;20062;-83
2021/05/04 17:33:21;;;;;;;;;;;;;;;;;;;;;
2021/05/04 17:36:29;;;;;;;10.48;3.55;;;;;;;18.56;47.42;97187.88;4736927;30;20050;-85
2021/05/04 17:42:25;;;;;;;5.93;3.40;;;;;;;17.94;48.17;97115.53;4777564;30;20039;-86
2021/05/04 17:44:57;;;;;;;9.02;4.20;;;;;;;17.80;48.94;97108.81;4772693;30;20040;-87
2021/05/04 17:47:26;;;;;;;12.40;7.50;;;;;;;18.14;50.24;97189.38;4824295;29;20044;-77
2021/05/04 17:49:51;;;;;;;46.53;23.33;;;;;;;17.87;50.72;97166.72;4854170;29;20033;-77
2021/05/04 17:52:17;;;;;;;4.60;3.25;;;;;;;17.83;50.69;97175.28;4862777;29;20172;-76
2021/05/04 17:54:43;;;;;;;7.30;4.35;;;;;;;17.69;51.65;97170.34;4862851;29;20040;-79
2021/05/04 17:57:09;;;;;;;10.40;4.65;;;;;;;17.51;52.20;97167.53;4859973;29;20033;-80
2021/05/04 17:59:35;;;;;;;9.35;4.22;;;;;;;17.40;53.43;97166.88;4853668;29;20024;-78
2021/05/04 18:02:01;;;;;;;6.63;3.17;;;;;;;17.35;53.66;97172.69;4893426;29;20855;-78
2021/05/04 18:04:27;;;;;;;14.55;4.18;;;;;;;17.28;54.02;97177.00;4858920;29;20182;-77
2021/05/04 18:06:57;;;;;;;4.80;3.17;;;;;;;17.16;54.43;97167.34;4874303;29;20829;-77
2021/05/04 18:09:25;;;;;;;6.93;3.45;;;;;;;17.11;54.19;97167.78;4853945;29;20028;-80
2021/05/04 18:11:53;;;;;;;7.38;3.83;;;;;;;17.04;53.95;97160.41;4871146;29;20926;-78
2021/05/04 18:22:10;;;;;;;13.25;3.78;;;;;;;16.65;55.60;97156.84;4876584;29;20028;-77
2021/05/04 18:24:39;;;;;;;6.43;3.65;;;;;;;16.64;55.86;97160.56;4870580;29;20473;-78
2021/05/04 18:27:05;;;;;;;5.05;3.22;;;;;;;16.52;56.11;97167.91;4869424;29;20044;-78
2021/05/04 18:29:37;;;;;;;6.72;3.58;;;;;;;16.50;56.35;97171.72;4874843;29;20421;-77
2021/05/04 18:32:08;;;;;;;4.60;3.20;;;;;;;16.41;56.49;97170.72;4869437;29;20029;-77
2021/05/04 18:35:00;;;;;;;5.95;3.28;;;;;;;16.25;57.25;97165.88;4854553;29;20661;-76
2021/05/04 19:13:12;;;;;;;12.70;4.47;;;;;;;14.96;68.63;97181.00;4871128;29;20052;-78
2021/05/04 19:29:34;;;;;;;7.28;4.30;;;;;;;14.63;71.67;97164.06;4861396;29;20044;-79
2021/05/04 20:01:19;;;;;;;7.28;4.30;;;;;;;14.15;72.11;97169.94;4864402;29;20039;-81
2021/05/04 20:12:36;;;;;;;10.80;5.15;;;;;;;13.85;75.80;97178.66;4893717;29;20457;-80
2021/05/04 20:15:04;;;;;;;13.77;4.72;;;;;;;13.73;75.35;97158.13;4848634;29;20028;-81
2021/05/04 20:17:35;;;;;;;10.93;4.95;;;;;;;13.70;76.62;97171.81;4882115;29;20040;-79
2021/05/04 20:20:08;;;;;;;11.40;5.25;;;;;;;13.69;77.00;97179.03;4863540;29;20410;-80
2021/05/04 20:22:37;;;;;;;17.17;5.10;;;;;;;13.62;77.78;97166.22;4859016;29;20033;-80